Time;durP1;ratioP1;P1;durP2;ratioP2;P2;SDS_P1;SDS_P2;PMS_P1;PMS_P2;Temp;Humidity;BMP_temperature;BMP_pressure;BME280_temperature;BME280_humidity;BME280_pressure;Samples;Min_cycle;Max_cycle;Signal;HPM_P1;HPM_P2
2021/12/09 00:01:50;;;;;;;;;2.75;2.75;;;;;5.76;100.00;100204.75;5014953;28;45364;-74
2021/12/09 00:04:24;;;;;;;;;2.50;2.50;;;;;5.83;100.00;100219.69;5015731;28;46106;-74
2021/12/09 00:06:51;;;;;;;;;4.50;2.75;;;;;5.77;100.00;100218.47;5014682;28;46172;-74
2021/12/09 00:09:19;;;;;;;;;2.75;2.25;;;;;5.77;100.00;100219.38;5015537;28;45287;-74
2021/12/09 00:11:46;;;;;;;;;2.50;2.50;;;;;5.76;100.00;100220.16;5016089;28;45175;-78
2021/12/09 00:14:16;;;;;;;;;4.50;2.50;;;;;5.79;100.00;100215.16;5014811;28;47574;-76
2021/12/09 00:16:43;;;;;;;;;2.00;2.00;;;;;5.82;100.00;100212.78;5001587;28;45764;-78
2021/12/09 00:19:09;;;;;;;;;2.00;2.00;;;;;5.78;100.00;100218.53;5000614;28;45355;-76
2021/12/09 00:21:36;;;;;;;;;3.75;2.75;;;;;5.74;100.00;100214.94;5018979;28;45658;-74
2021/12/09 00:24:02;;;;;;;;;2.25;2.00;;;;;5.74;100.00;100220.06;5018856;28;46050;-75
2021/12/09 00:26:30;;;;;;;;;5.25;1.00;;;;;5.71;100.00;100226.72;5019053;28;46006;-76
2021/12/09 00:28:57;;;;;;;;;1.25;1.00;;;;;5.65;100.00;100211.88;5018722;28;45409;-73
2021/12/09 00:31:23;;;;;;;;;1.50;1.25;;;;;5.74;100.00;100220.06;5017591;28;45372;-77
2021/12/09 00:33:50;;;;;;;;;2.00;1.75;;;;;5.69;100.00;100203.53;5018082;28;45266;-76
2021/12/09 00:36:26;;;;;;;;;3.00;3.00;;;;;5.70;100.00;100214.69;5018856;28;45217;-75
2021/12/09 00:38:57;;;;;;;;;1.50;1.50;;;;;5.72;100.00;100211.38;5018416;28;45563;-79
2021/12/09 00:41:23;;;;;;;;;2.00;1.75;;;;;5.78;100.00;100222.81;5001541;28;45270;-73
2021/12/09 00:43:51;;;;;;;;;1.25;1.25;;;;;5.71;100.00;100219.00;5017954;28;45998;-75
2021/12/09 00:46:17;;;;;;;;;2.25;2.25;;;;;5.76;100.00;100229.53;5018127;28;45421;-76
2021/12/09 00:48:44;;;;;;;;;1.00;1.00;;;;;5.79;100.00;100232.28;5000986;28;45409;-73
2021/12/09 00:51:10;;;;;;;;;3.00;2.25;;;;;5.79;100.00;100235.72;5018446;28;45332;-77
2021/12/09 00:53:39;;;;;;;;;2.00;2.00;;;;;5.74;100.00;100232.03;5018061;28;45498;-72
2021/12/09 00:56:11;;;;;;;;;3.00;1.00;;;;;5.58;100.00;100202.94;4983886;28;45314;-75
2021/12/09 00:58:39;;;;;;;;;1.00;1.00;;;;;5.71;100.00;100231.84;5001197;28;45374;-74
2021/12/09 01:01:06;;;;;;;;;1.50;1.50;;;;;5.72;100.00;100225.91;5017709;28;45241;-76
2021/12/09 01:03:33;;;;;;;;;1.00;1.00;;;;;5.77;100.00;100226.16;5017924;28;45550;-76
2021/12/09 01:05:59;;;;;;;;;2.25;2.00;;;;;5.74;100.00;100227.78;5017511;28;47296;-77
2021/12/09 01:08:25;;;;;;;;;0.25;0.25;;;;;5.70;100.00;100222.38;5018093;28;45456;-77
2021/12/09 01:10:51;;;;;;;;;1.00;1.00;;;;;5.74;100.00;100225.19;5017717;28;45359;-73
2021/12/09 01:13:20;;;;;;;;;1.00;1.00;;;;;5.72;100.00;100223.34;5018089;28;46415;-75
2021/12/09 01:15:50;;;;;;;;;1.00;1.00;;;;;5.74;100.00;100237.19;5018760;28;45826;-75
2021/12/09 01:18:16;;;;;;;;;1.50;1.00;;;;;5.71;100.00;100227.63;5018687;28;45333;-76
2021/12/09 01:20:41;;;;;;;;;0.75;0.75;;;;;5.72;100.00;100241.34;5018662;28;45501;-72
2021/12/09 01:23:07;;;;;;;;;1.00;1.00;;;;;5.73;100.00;100240.53;5017689;28;45928;-74
2021/12/09 01:25:37;;;;;;;;;2.00;2.00;;;;;5.71;100.00;100245.59;5017236;28;45276;-74
2021/12/09 01:28:14;;;;;;;;;1.50;1.25;;;;;5.76;100.00;100250.09;5017553;28;45562;-76
2021/12/09 01:30:40;;;;;;;;;0.25;0.25;;;;;5.77;100.00;100252.75;5018071;28;45313;-73
2021/12/09 01:33:06;;;;;;;;;3.00;1.00;;;;;5.74;100.00;100248.31;5017150;28;45320;-72
2021/12/09 01:35:34;;;;;;;;;1.00;1.00;;;;;5.77;100.00;100255.34;5017109;28;45722;-72
2021/12/09 01:38:09;;;;;;;;;0.00;0.00;;;;;5.74;100.00;100235.47;5017356;28;45314;-73
2021/12/09 01:40:36;;;;;;;;;1.00;1.00;;;;;5.74;100.00;100245.75;4999545;28;45327;-72
2021/12/09 01:43:01;;;;;;;;;1.00;1.00;;;;;5.77;100.00;100259.56;5016120;28;45968;-73
2021/12/09 01:45:27;;;;;;;;;2.25;0.50;;;;;5.69;100.00;100246.28;5017113;28;45789;-73
2021/12/09 01:47:54;;;;;;;;;1.75;1.00;;;;;5.74;100.00;100263.72;5016840;28;45498;-73
2021/12/09 01:50:20;;;;;;;;;1.75;1.75;;;;;5.79;100.00;100270.81;5017789;28;45357;-72
2021/12/09 01:52:46;;;;;;;;;2.00;0.75;;;;;5.74;100.00;100250.00;5016849;28;45920;-72
2021/12/09 01:55:14;;;;;;;;;0.00;0.00;;;;;5.80;100.00;100264.88;5016912;28;45527;-73
2021/12/09 01:57:40;;;;;;;;;1.75;1.75;;;;;5.83;100.00;100262.50;4998943;28;45261;-72
2021/12/09 02:00:11;;;;;;;;;0.75;0.75;;;;;5.83;100.00;100265.94;5016781;28;45501;-72
2021/12/09 02:02:38;;;;;;;;;0.00;0.00;;;;;5.85;100.00;100279.75;5017190;28;46129;-73
2021/12/09 02:05:04;;;;;;;;;0.50;0.50;;;;;5.83;100.00;100268.50;4999169;28;45816;-72
2021/12/09 02:07:30;;;;;;;;;1.00;1.00;;;;;5.90;100.00;100267.16;5016870;28;45344;-72
2021/12/09 02:09:55;;;;;;;;;2.00;1.00;;;;;5.82;100.00;100266.72;5016546;28;45521;-72
2021/12/09 02:12:21;;;;;;;;;0.75;0.50;;;;;5.93;100.00;100269.91;5016143;28;45419;-71
2021/12/09 02:14:47;;;;;;;;;3.50;0.50;;;;;5.89;100.00;100263.69;5017039;28;45367;-73
2021/12/09 02:17:13;;;;;;;;;1.25;1.00;;;;;5.94;100.00;100268.19;5017247;28;45311;-73
2021/12/09 02:19:44;;;;;;;;;0.75;0.75;;;;;5.96;100.00;100275.19;4998905;28;45513;-73
2021/12/09 02:22:11;;;;;;;;;0.00;0.00;;;;;5.95;100.00;100265.69;5016178;28;46228;-73
2021/12/09 02:24:38;;;;;;;;;0.50;0.25;;;;;5.97;100.00;100274.38;5015032;28;46010;-72
2021/12/09 02:27:05;;;;;;;;;0.00;0.00;;;;;5.96;100.00;100280.31;5016105;28;45455;-73
2021/12/09 02:29:30;;;;;;;;;2.00;0.00;;;;;5.94;100.00;100275.91;5016989;28;45519;-74
2021/12/09 02:31:57;;;;;;;;;1.00;1.00;;;;;5.95;100.00;100267.41;5015973;28;45954;-74
2021/12/09 02:34:23;;;;;;;;;0.00;0.00;;;;;5.97;100.00;100273.50;5016470;28;45705;-75
2021/12/09 02:36:51;;;;;;;;;2.00;0.00;;;;;5.96;100.00;100270.03;5016187;28;45491;-73
2021/12/09 02:39:17;;;;;;;;;0.50;0.00;;;;;5.98;100.00;100267.56;5015673;28;45609;-73
2021/12/09 02:41:46;;;;;;;;;1.00;0.75;;;;;5.98;100.00;100257.31;5016770;28;46397;-73
2021/12/09 02:44:17;;;;;;;;;1.25;1.00;;;;;5.98;100.00;100255.59;5016516;28;45494;-74
2021/12/09 02:46:43;;;;;;;;;0.25;0.25;;;;;6.04;100.00;100262.78;5016905;28;45339;-77
2021/12/09 02:49:13;;;;;;;;;2.00;1.00;;;;;6.04;100.00;100263.69;5016521;28;45312;-74
2021/12/09 02:51:39;;;;;;;;;1.00;1.00;;;;;6.10;100.00;100278.53;5016036;28;46186;-73
2021/12/09 02:54:07;;;;;;;;;0.00;0.00;;;;;6.11;100.00;100272.59;5014520;28;45690;-73
2021/12/09 02:56:34;;;;;;;;;3.00;0.00;;;;;6.13;100.00;100272.69;5015792;28;45437;-75
2021/12/09 02:59:00;;;;;;;;;2.50;1.00;;;;;6.14;100.00;100270.19;4998551;28;45404;-74
2021/12/09 03:01:31;;;;;;;;;1.00;0.00;;;;;6.14;100.00;100280.47;5015733;28;45503;-73
2021/12/09 03:04:00;;;;;;;;;1.00;1.00;;;;;6.10;100.00;100282.81;5015596;28;45750;-72
2021/12/09 03:06:35;;;;;;;;;1.00;0.00;;;;;6.12;100.00;100286.34;5016004;28;45436;-72
2021/12/09 03:09:08;;;;;;;;;1.25;0.50;;;;;6.12;100.00;100284.66;5015385;28;45521;-78
2021/12/09 03:11:34;;;;;;;;;0.75;0.25;;;;;6.15;100.00;100294.22;5015139;28;45915;-75
2021/12/09 03:14:01;;;;;;;;;2.00;2.00;;;;;6.12;100.00;100288.91;5015462;28;45949;-73
2021/12/09 03:16:27;;;;;;;;;3.25;0.50;;;;;6.05;100.00;100274.84;4998341;28;45379;-72
2021/12/09 03:18:58;;;;;;;;;0.00;0.00;;;;;6.06;100.00;100280.84;5015878;28;45162;-75
2021/12/09 03:21:32;;;;;;;;;1.00;0.00;;;;;6.04;100.00;100270.50;5015903;28;45419;-75
2021/12/09 03:24:00;;;;;;;;;0.00;0.00;;;;;6.04;100.00;100281.69;5015395;28;45387;-74
2021/12/09 03:26:31;;;;;;;;;0.00;0.00;;;;;6.02;100.00;100277.25;5015909;28;45553;-73
2021/12/09 03:29:00;;;;;;;;;0.00;0.00;;;;;5.96;100.00;100261.47;5015380;28;45587;-73
2021/12/09 03:31:27;;;;;;;;;0.00;0.00;;;;;6.04;100.00;100276.53;5014995;28;45693;-75
2021/12/09 03:33:54;;;;;;;;;0.00;0.00;;;;;6.04;100.00;100288.50;5015297;28;45684;-71
2021/12/09 03:36:20;;;;;;;;;1.50;1.00;;;;;6.06;100.00;100288.56;5015716;28;45385;-72
2021/12/09 03:38:46;;;;;;;;;1.00;1.00;;;;;6.08;100.00;100294.69;5015887;28;46197;-72
2021/12/09 03:41:12;;;;;;;;;0.00;0.00;;;;;6.10;100.00;100303.34;5015901;28;45354;-73
2021/12/09 03:43:38;;;;;;;;;1.50;1.25;;;;;6.11;100.00;100294.84;5014760;28;45379;-78
2021/12/09 03:46:04;;;;;;;;;0.75;0.75;;;;;6.16;100.00;100295.97;5015512;28;45358;-76
2021/12/09 03:48:30;;;;;;;;;0.25;0.25;;;;;6.17;100.00;100296.06;5015956;28;45506;-72
2021/12/09 03:50:56;;;;;;;;;1.00;0.00;;;;;6.19;100.00;100301.28;5018152;28;45451;-76
2021/12/09 03:53:22;;;;;;;;;1.25;1.00;;;;;6.14;100.00;100301.03;5000960;28;45439;-72
2021/12/09 03:55:48;;;;;;;;;0.25;0.25;;;;;6.13;100.00;100294.13;5018834;28;45270;-76
2021/12/09 03:58:14;;;;;;;;;1.00;0.50;;;;;6.17;100.00;100306.34;5019047;28;45650;-76
2021/12/09 04:00:40;;;;;;;;;1.00;1.00;;;;;6.23;100.00;100310.03;5018438;28;45262;-74
2021/12/09 04:03:07;;;;;;;;;1.00;1.00;;;;;6.21;100.00;100316.81;5018431;28;45339;-73
2021/12/09 04:05:33;;;;;;;;;3.00;1.25;;;;;6.23;100.00;100308.38;5000862;28;45316;-73
2021/12/09 04:07:59;;;;;;;;;3.00;1.00;;;;;6.23;100.00;100307.47;5018771;28;45638;-73
2021/12/09 04:10:24;;;;;;;;;2.25;0.50;;;;;6.15;100.00;100296.78;5018458;28;45489;-73
2021/12/09 04:12:51;;;;;;;;;0.75;0.50;;;;;6.20;100.00;100305.63;5018504;28;45421;-72
2021/12/09 04:15:17;;;;;;;;;2.50;1.50;;;;;6.24;100.00;100304.09;5000496;28;45468;-72
2021/12/09 04:17:42;;;;;;;;;0.00;0.00;;;;;6.26;100.00;100313.69;5018810;28;45387;-73
2021/12/09 04:20:09;;;;;;;;;0.25;0.25;;;;;6.25;100.00;100313.59;5018194;28;45683;-72
2021/12/09 04:22:35;;;;;;;;;0.00;0.00;;;;;6.28;100.00;100316.34;5000643;28;45701;-73
2021/12/09 04:25:01;;;;;;;;;3.75;1.00;;;;;6.25;100.00;100316.16;5018472;28;45293;-74
2021/12/09 04:27:26;;;;;;;;;2.00;1.00;;;;;6.33;100.00;100322.59;5018945;28;45392;-72
2021/12/09 04:29:53;;;;;;;;;0.00;0.00;;;;;6.32;100.00;100310.53;5017776;28;45471;-73
2021/12/09 04:32:20;;;;;;;;;0.00;0.00;;;;;6.36;100.00;100317.63;5018462;28;45388;-72
2021/12/09 04:34:46;;;;;;;;;1.50;1.00;;;;;6.34;100.00;100322.69;5018729;28;45532;-72
2021/12/09 04:37:13;;;;;;;;;2.50;1.00;;;;;6.34;100.00;100314.97;5018299;28;45500;-72
2021/12/09 04:39:39;;;;;;;;;0.00;0.00;;;;;6.40;100.00;100324.72;5018401;28;46193;-72
2021/12/09 04:42:06;;;;;;;;;3.50;1.00;;;;;6.36;100.00;100312.47;5000315;28;45759;-72
2021/12/09 04:44:32;;;;;;;;;1.00;1.00;;;;;6.36;100.00;100322.75;5000026;28;45752;-72
2021/12/09 04:47:00;;;;;;;;;0.00;0.00;;;;;6.35;100.00;100318.41;5000304;28;45325;-76
2021/12/09 04:49:27;;;;;;;;;1.00;0.50;;;;;6.32;100.00;100303.72;5018272;28;46036;-72
2021/12/09 04:51:52;;;;;;;;;1.00;1.00;;;;;6.34;100.00;100301.22;5017651;28;45251;-72
2021/12/09 04:54:18;;;;;;;;;2.00;1.00;;;;;6.41;100.00;100315.28;5017769;28;45670;-75
2021/12/09 04:56:44;;;;;;;;;1.00;1.00;;;;;6.38;100.00;100317.69;5019056;28;45620;-75
2021/12/09 04:59:09;;;;;;;;;1.25;1.00;;;;;6.39;100.00;100320.38;5017611;28;46346;-74
2021/12/09 05:01:35;;;;;;;;;0.00;0.00;;;;;6.41;100.00;100323.00;5016423;28;45308;-74
2021/12/09 05:04:03;;;;;;;;;2.00;1.00;;;;;6.43;100.00;100327.41;5017557;28;45842;-73
2021/12/09 05:06:29;;;;;;;;;2.25;1.00;;;;;6.40;100.00;100318.66;5018261;28;45323;-75
2021/12/09 05:08:57;;;;;;;;;2.00;0.00;;;;;6.39;100.00;100316.88;5017251;28;45530;-73
2021/12/09 05:11:47;;;;;;;;;2.00;0.00;;;;;6.37;100.00;100310.81;5017485;28;45743;-72
2021/12/09 05:14:18;;;;;;;;;1.00;0.00;;;;;6.38;100.00;100318.59;5017827;28;45490;-73
2021/12/09 05:16:45;;;;;;;;;0.00;0.00;;;;;6.31;100.00;100308.78;5018464;28;45450;-73
2021/12/09 05:19:11;;;;;;;;;1.75;1.00;;;;;6.35;100.00;100323.56;5016972;28;45493;-76
2021/12/09 05:21:39;;;;;;;;;2.00;0.50;;;;;6.35;100.00;100314.19;5017502;28;45607;-73
2021/12/09 05:24:10;;;;;;;;;2.00;0.75;;;;;6.36;100.00;100317.63;5017189;28;45571;-75
2021/12/09 05:26:56;;;;;;;;;2.50;1.00;;;;;6.37;100.00;100315.94;5017829;28;45392;-72
2021/12/09 05:29:28;;;;;;;;;0.00;0.00;;;;;6.40;100.00;100326.38;5017418;28;45737;-71
2021/12/09 05:32:10;;;;;;;;;2.75;1.00;;;;;6.40;100.00;100322.13;5016682;28;45824;-73
2021/12/09 05:34:45;;;;;;;;;1.75;1.00;;;;;6.44;100.00;100323.19;5017144;28;45309;-71
2021/12/09 05:37:19;;;;;;;;;1.75;1.00;;;;;6.46;100.00;100326.72;5017338;28;45568;-71
2021/12/09 05:39:46;;;;;;;;;1.00;1.00;;;;;6.46;100.00;100332.72;5017759;28;45475;-72
2021/12/09 05:42:13;;;;;;;;;1.00;0.00;;;;;6.47;100.00;100320.78;5017530;28;45309;-72
2021/12/09 05:44:38;;;;;;;;;2.75;2.00;;;;;6.52;100.00;100337.31;5016885;28;45496;-72
2021/12/09 05:47:08;;;;;;;;;2.00;1.00;;;;;6.52;100.00;100347.63;5016911;28;45479;-72
2021/12/09 05:49:37;;;;;;;;;1.25;1.25;;;;;6.56;100.00;100334.13;5016835;28;46246;-72
2021/12/09 05:52:04;;;;;;;;;1.25;1.25;;;;;6.59;100.00;100333.41;5016363;28;45741;-73
2021/12/09 05:54:30;;;;;;;;;1.25;1.00;;;;;6.56;100.00;100334.13;5013279;28;45462;-72
2021/12/09 05:56:55;;;;;;;;;2.25;1.00;;;;;6.58;100.00;100339.34;5016247;28;46364;-75
2021/12/09 05:59:21;;;;;;;;;1.00;1.00;;;;;6.62;100.00;100351.56;5013980;28;46087;-73
2021/12/09 06:01:48;;;;;;;;;2.00;2.00;;;;;6.59;100.00;100333.41;5016459;28;45564;-73
2021/12/09 06:04:13;;;;;;;;;1.00;1.00;;;;;6.63;100.00;100343.94;5017519;28;45454;-74
2021/12/09 06:06:40;;;;;;;;;2.00;2.00;;;;;6.60;100.00;100346.31;5017384;28;45514;-76
2021/12/09 06:09:08;;;;;;;;;3.00;2.00;;;;;6.54;100.00;100340.88;5016589;28;45560;-76
2021/12/09 06:11:34;;;;;;;;;5.75;2.00;;;;;6.46;100.00;100337.88;5015279;28;45816;-71
2021/12/09 06:14:01;;;;;;;;;1.75;1.00;;;;;6.43;100.00;100345.41;5015195;28;45467;-72
2021/12/09 06:16:27;;;;;;;;;3.50;1.25;;;;;6.44;100.00;100344.63;5016637;28;45479;-74
2021/12/09 06:18:54;;;;;;;;;0.00;0.00;;;;;6.41;100.00;100361.56;5014987;28;46326;-70
2021/12/09 06:21:23;;;;;;;;;2.50;2.00;;;;;6.41;100.00;100349.63;5015302;28;45462;-71
2021/12/09 06:23:50;;;;;;;;;1.75;1.75;;;;;6.36;100.00;100340.75;5015409;28;45633;-71
2021/12/09 06:26:16;;;;;;;;;3.00;2.50;;;;;6.41;100.00;100357.34;5015938;28;45290;-72
2021/12/09 06:28:41;;;;;;;;;2.25;2.25;;;;;6.44;100.00;100352.34;5014639;28;46680;-72
2021/12/09 06:31:07;;;;;;;;;4.00;2.00;;;;;6.42;100.00;100353.06;5016080;28;45280;-72
2021/12/09 06:33:33;;;;;;;;;3.00;2.00;;;;;6.41;100.00;100366.72;5016246;28;45573;-73
2021/12/09 06:35:59;;;;;;;;;4.50;4.00;;;;;6.38;100.00;100359.72;5016630;28;45725;-72
2021/12/09 06:38:25;;;;;;;;;1.00;1.00;;;;;6.30;100.00;100358.44;5016270;28;45412;-72
2021/12/09 06:40:52;;;;;;;;;4.00;2.00;;;;;6.28;100.00;100368.63;4998160;28;45370;-72
2021/12/09 06:43:18;;;;;;;;;7.00;4.00;;;;;6.19;100.00;100366.44;4998910;28;45258;-73
2021/12/09 06:45:44;;;;;;;;;5.25;3.25;;;;;6.22;100.00;100382.81;5016800;28;45702;-73
2021/12/09 06:48:11;;;;;;;;;2.75;1.50;;;;;6.23;100.00;100384.59;5015864;28;45320;-72
2021/12/09 06:50:36;;;;;;;;;1.75;1.75;;;;;6.21;100.00;100384.50;5016406;28;45806;-74
2021/12/09 06:53:04;;;;;;;;;3.00;3.00;;;;;6.18;100.00;100387.81;5016384;28;45630;-73
2021/12/09 06:55:30;;;;;;;;;2.00;2.00;;;;;6.15;100.00;100379.91;5013838;28;45454;-73
2021/12/09 06:57:55;;;;;;;;;4.00;3.25;;;;;6.15;100.00;100382.50;5015181;28;46234;-73
2021/12/09 07:00:25;;;;;;;;;4.50;3.00;;;;;6.13;100.00;100394.38;5014050;28;45459;-72
2021/12/09 07:02:52;;;;;;;;;3.50;2.50;;;;;6.12;100.00;100394.28;5013488;28;45440;-73
2021/12/09 07:05:21;;;;;;;;;6.25;2.25;;;;;6.05;100.00;100393.06;5014581;28;45655;-72
2021/12/09 07:07:47;;;;;;;;;5.50;3.00;;;;;6.04;100.00;100383.56;5014906;28;45332;-72
2021/12/09 07:10:14;;;;;;;;;6.50;2.75;;;;;6.03;100.00;100400.69;5015703;28;45396;-72
2021/12/09 07:12:40;;;;;;;;;3.75;2.50;;;;;6.00;100.00;100390.22;5015609;28;45361;-73
2021/12/09 07:15:09;;;;;;;;;3.75;3.75;;;;;6.00;100.00;100397.03;5015774;28;45571;-72
2021/12/09 07:17:35;;;;;;;;;3.00;3.00;;;;;6.02;100.00;100391.22;5014429;28;45637;-74
2021/12/09 07:20:02;;;;;;;;;4.00;2.75;;;;;6.03;100.00;100386.94;5014703;28;45310;-72
2021/12/09 07:22:27;;;;;;;;;7.25;5.00;;;;;6.06;100.00;100402.53;5016541;28;45526;-74
2021/12/09 07:24:53;;;;;;;;;2.75;2.00;;;;;6.07;100.00;100395.69;5013723;28;45482;-81
2021/12/09 07:27:19;;;;;;;;;2.25;2.00;;;;;6.11;100.00;100395.97;5015460;28;45295;-77
2021/12/09 07:29:44;;;;;;;;;6.50;6.00;;;;;6.10;100.00;100388.16;5015804;28;45452;-78
2021/12/09 07:32:10;;;;;;;;;6.75;6.00;;;;;6.06;100.00;100391.34;5014975;28;45284;-78
2021/12/09 07:34:36;;;;;;;;;3.50;3.00;;;;;6.10;100.00;100391.63;5014686;28;45582;-77
2021/12/09 07:37:04;;;;;;;;;7.00;6.00;;;;;6.09;100.00;100376.13;5015308;28;45320;-75
2021/12/09 07:39:32;;;;;;;;;3.25;2.75;;;;;6.16;100.00;100397.13;5012820;28;45335;-74
2021/12/09 07:41:59;;;;;;;;;5.00;3.75;;;;;6.15;100.00;100395.34;5014331;28;45535;-73
2021/12/09 07:44:28;;;;;;;;;4.25;4.25;;;;;6.13;100.00;100391.78;5013958;28;45482;-75
2021/12/09 07:46:55;;;;;;;;;3.75;3.00;;;;;6.11;100.00;100395.97;5014683;28;46491;-74
2021/12/09 07:49:21;;;;;;;;;7.75;5.50;;;;;6.04;100.00;100392.19;5014709;28;45566;-76
2021/12/09 07:51:48;;;;;;;;;6.00;6.00;;;;;6.03;100.00;100387.84;5012774;28;45518;-76
2021/12/09 07:54:14;;;;;;;;;3.50;2.25;;;;;6.03;100.00;100386.94;5014386;28;45222;-76
2021/12/09 07:56:40;;;;;;;;;7.75;4.50;;;;;5.92;100.00;100370.91;5013473;28;45524;-76
2021/12/09 07:59:05;;;;;;;;;7.50;4.00;;;;;6.09;100.00;100387.31;5013190;28;45197;-76
2021/12/09 08:01:31;;;;;;;;;6.50;4.00;;;;;6.09;100.00;100401.81;5013515;28;45344;-79
2021/12/09 08:03:58;;;;;;;;;5.25;4.00;;;;;6.11;100.00;100402.78;4995773;28;45466;-76
2021/12/09 08:06:24;;;;;;;;;6.25;3.75;;;;;6.11;100.00;100406.25;5014907;28;45485;-75
2021/12/09 08:08:50;;;;;;;;;8.50;5.00;;;;;6.11;100.00;100411.38;5014600;28;45330;-75
2021/12/09 08:11:16;;;;;;;;;3.00;2.25;;;;;6.05;100.00;100411.03;4997674;28;45486;-77
2021/12/09 08:13:42;;;;;;;;;6.00;6.00;;;;;6.07;100.00;100411.13;5014499;28;45539;-77
2021/12/09 08:16:07;;;;;;;;;5.75;4.00;;;;;6.04;100.00;100410.19;5014474;28;46084;-74
2021/12/09 08:18:53;;;;;;;;;8.75;5.50;;;;;6.11;100.00;100410.50;5015034;28;45387;-78
2021/12/09 08:21:18;;;;;;;;;4.00;3.75;;;;;6.14;100.00;100400.41;5014563;28;45429;-77
2021/12/09 08:23:44;;;;;;;;;4.75;4.00;;;;;6.23;100.00;100400.00;5002504;28;45440;-76
2021/12/09 08:26:09;;;;;;;;;7.00;3.00;;;;;6.26;100.00;100398.53;5013727;28;46290;-82
2021/12/09 08:28:35;;;;;;;;;5.25;3.00;;;;;6.28;100.00;100401.16;5014165;28;45367;-82
2021/12/09 08:31:01;;;;;;;;;3.50;3.50;;;;;6.27;100.00;100396.81;5001995;28;45210;-76
2021/12/09 08:33:26;;;;;;;;;3.25;2.75;;;;;6.28;100.00;100403.75;5014570;28;45468;-75
2021/12/09 08:35:52;;;;;;;;;4.00;3.00;;;;;6.18;100.00;100398.09;5014649;28;45773;-75
2021/12/09 08:38:19;;;;;;;;;3.75;3.75;;;;;6.23;100.00;100405.16;5017464;28;45500;-75
2021/12/09 08:40:46;;;;;;;;;5.50;3.25;;;;;6.19;100.00;100394.72;5001276;28;45551;-75
2021/12/09 08:43:12;;;;;;;;;5.50;3.75;;;;;6.27;100.00;100405.41;5018697;28;45556;-75
2021/12/09 08:45:39;;;;;;;;;4.00;3.75;;;;;6.24;100.00;100399.22;5017676;28;46604;-84
2021/12/09 08:48:05;;;;;;;;;7.00;2.00;;;;;6.28;100.00;100411.44;5017958;28;45359;-81
2021/12/09 08:50:33;;;;;;;;;5.50;4.25;;;;;6.20;100.00;100408.44;5018215;28;45299;-84
2021/12/09 08:53:02;;;;;;;;;6.00;4.00;;;;;6.15;100.00;100394.47;5017672;28;45387;-76
2021/12/09 08:55:29;;;;;;;;;3.25;3.25;;;;;6.34;100.00;100427.19;4999244;28;47839;-76
2021/12/09 08:57:54;;;;;;;;;5.50;4.50;;;;;6.34;100.00;100432.34;5016447;28;45793;-77
2021/12/09 09:00:20;;;;;;;;;5.50;4.00;;;;;6.41;100.00;100437.06;5017231;28;45417;-74
2021/12/09 09:02:49;;;;;;;;;5.25;2.00;;;;;6.38;100.00;100430.81;4999559;28;45167;-73
2021/12/09 09:05:15;;;;;;;;;3.25;2.75;;;;;6.46;100.00;100442.44;5016526;28;46065;-76
2021/12/09 09:07:42;;;;;;;;;5.00;4.00;;;;;6.49;100.00;100450.31;5016637;28;45260;-74
2021/12/09 09:10:09;;;;;;;;;3.50;3.00;;;;;6.46;100.00;100443.31;5016259;28;45486;-77
2021/12/09 09:12:36;;;;;;;;;3.00;2.25;;;;;6.47;100.00;100454.50;5017416;28;45549;-76
2021/12/09 09:15:06;;;;;;;;;6.75;2.50;;;;;6.47;100.00;100452.81;5016753;28;46203;-77
2021/12/09 09:17:31;;;;;;;;;5.75;3.00;;;;;6.53;100.00;100461.69;5017279;28;45376;-76
2021/12/09 09:19:57;;;;;;;;;7.00;3.50;;;;;6.54;100.00;100473.72;5017132;28;45412;-76
2021/12/09 09:22:22;;;;;;;;;4.25;3.25;;;;;6.51;100.00;100464.16;5017084;28;45353;-77
2021/12/09 09:24:48;;;;;;;;;3.00;3.00;;;;;6.49;100.00;100473.44;5016512;28;45826;-76
2021/12/09 09:27:14;;;;;;;;;4.00;4.00;;;;;6.42;100.00;100461.06;5016764;28;45405;-74
2021/12/09 09:29:40;;;;;;;;;3.50;2.00;;;;;6.50;100.00;100468.41;5015375;28;45388;-74
2021/12/09 09:32:10;;;;;;;;;6.00;4.00;;;;;6.47;100.00;100467.38;5017478;28;45547;-74
2021/12/09 09:34:36;;;;;;;;;6.00;4.50;;;;;6.48;100.00;100475.16;5016680;28;46210;-75
2021/12/09 09:37:04;;;;;;;;;3.50;2.50;;;;;6.43;100.00;100462.84;5016831;28;45277;-82
2021/12/09 09:39:31;;;;;;;;;3.75;3.75;;;;;6.49;100.00;100479.50;5017091;28;45311;-77
2021/12/09 09:42:18;;;;;;;;;5.50;3.25;;;;;6.47;100.00;100475.94;5016926;28;45336;-76
2021/12/09 09:44:54;;;;;;;;;4.25;3.25;;;;;6.39;100.00;100466.03;5017023;28;45454;-76
2021/12/09 09:47:25;;;;;;;;;6.50;5.25;;;;;6.54;100.00;100484.91;5016397;28;45838;-74
2021/12/09 09:49:52;;;;;;;;;2.00;2.00;;;;;6.58;100.00;100488.53;5016736;28;45217;-77
2021/12/09 09:52:19;;;;;;;;;6.00;3.00;;;;;6.64;100.00;100494.03;5016839;28;45426;-77
2021/12/09 09:54:44;;;;;;;;;3.00;2.00;;;;;6.66;100.00;100503.59;5016577;28;45431;-76
2021/12/09 09:57:10;;;;;;;;;9.50;6.00;;;;;6.73;100.00;100491.06;5016474;28;45503;-76
2021/12/09 09:59:40;;;;;;;;;6.50;3.50;;;;;6.62;100.00;100472.47;5016575;28;45438;-77
2021/12/09 10:02:07;;;;;;;;;2.00;1.50;;;;;6.71;100.00;100478.13;5016562;28;45419;-77
2021/12/09 10:04:44;;;;;;;;;3.00;3.00;;;;;6.69;100.00;100497.72;5016230;28;45395;-78
2021/12/09 10:07:11;;;;;;;;;4.00;3.25;;;;;6.72;100.00;100486.69;5015689;28;45914;-77
2021/12/09 10:09:38;;;;;;;;;4.50;3.00;;;;;6.62;100.00;100459.59;5016462;28;45437;-76
2021/12/09 10:12:04;;;;;;;;;5.00;5.00;;;;;6.73;100.00;100485.91;4998352;28;45481;-75
2021/12/09 10:14:35;;;;;;;;;6.25;3.00;;;;;6.76;100.00;100478.38;5016403;28;45466;-74
2021/12/09 10:17:08;;;;;;;;;2.00;2.00;;;;;6.71;100.00;100470.41;5016017;28;45441;-75
2021/12/09 10:19:37;;;;;;;;;3.00;3.00;;;;;6.77;100.00;100475.00;5016397;28;45452;-74
2021/12/09 10:22:12;;;;;;;;;6.00;4.00;;;;;6.83;100.00;100470.16;5016029;28;45308;-74
2021/12/09 10:24:40;;;;;;;;;5.75;3.25;;;;;6.87;100.00;100459.25;5015860;28;45194;-76
2021/12/09 10:27:08;;;;;;;;;2.25;2.25;;;;;7.00;100.00;100460.78;5017556;28;45337;-79
2021/12/09 10:29:45;;;;;;;;;3.25;3.25;;;;;7.01;100.00;100448.81;5016013;28;45414;-76
2021/12/09 10:32:19;;;;;;;;;7.50;5.50;;;;;7.06;100.00;100449.94;5016706;28;45326;-79
2021/12/09 10:34:47;;;;;;;;;3.50;3.00;;;;;7.07;100.00;100439.69;5016933;28;46279;-83
2021/12/09 10:37:20;;;;;;;;;4.00;3.50;;;;;7.07;100.00;100434.56;5016195;28;45772;-76
2021/12/09 10:39:54;;;;;;;;;3.50;2.50;;;;;7.13;100.00;100436.56;5016308;28;45458;-81
2021/12/09 10:42:24;;;;;;;;;5.50;3.00;;;;;7.13;100.00;100427.16;5015280;28;45697;-81
2021/12/09 10:44:53;;;;;;;;;7.00;3.50;;;;;7.16;100.00;100433.28;5008476;28;47396;-81
2021/12/09 10:53:36;;;;;;;;;2.00;2.00;;;;;7.31;100.00;100435.78;5015862;28;45347;-77
2021/12/09 10:56:13;;;;;;;;;4.00;3.00;;;;;7.32;100.00;100415.25;5015058;28;46051;-78
2021/12/09 10:58:46;;;;;;;;;58.75;45.00;;;;;7.39;100.00;100424.16;5015066;28;45419;-79
2021/12/09 11:01:24;;;;;;;;;23.75;15.25;;;;;7.46;100.00;100433.97;5015928;28;45307;-76
2021/12/09 11:03:54;;;;;;;;;3.25;2.75;;;;;7.51;100.00;100432.53;5015260;28;45391;-75
2021/12/09 11:06:28;;;;;;;;;2.50;2.00;;;;;7.56;100.00;100436.22;5015142;28;45913;-75
2021/12/09 11:08:57;;;;;;;;;2.75;2.75;;;;;7.58;100.00;100428.56;5015058;28;45744;-74
2021/12/09 11:11:29;;;;;;;;;4.25;3.50;;;;;7.63;100.00;100421.06;5015353;28;45340;-80
2021/12/09 11:14:17;;;;;;;;;2.00;2.00;;;;;7.54;100.00;100400.88;4997438;28;45507;-73
2021/12/09 11:16:49;;;;;;;;;7.50;3.25;;;;;7.67;100.00;100404.94;4997490;28;46945;-74
2021/12/09 11:19:25;;;;;;;;;3.00;3.00;;;;;7.74;100.00;100405.34;5015364;28;45778;-75
2021/12/09 11:21:58;;;;;;;;;4.00;2.00;;;;;7.78;100.00;100403.78;5014900;28;45289;-79
2021/12/09 11:24:32;;;;;;;;;3.00;2.00;;;;;7.88;100.00;100400.84;4997383;28;45270;-78
2021/12/09 11:27:02;;;;;;;;;4.00;4.00;;;;;7.94;100.00;100408.00;5015376;28;46056;-74
2021/12/09 11:29:37;;;;;;;;;3.00;2.75;;;;;7.93;100.00;100405.34;5015324;28;45364;-77
2021/12/09 11:32:57;;;;;;;;;67.75;51.50;;;;;7.98;100.00;100409.06;5014737;28;45355;-78
2021/12/09 11:35:12;;;;;;;;;16.75;10.50;;;;;7.94;100.00;100394.25;5009073;28;45368;-79